EWG94PJ EDDS-EPKK
Flight info
| Callsign | EWG94PJ |
|---|---|
| Flight time | N/A |
| Altitude | 23000 |
| Route | DKB9B DKB N869 AMOSA/N0430F350 N869 ANELA Z715 KULOK L984 OKG DCT ETUDA DCT PADKA |
| Aircraft | A21N/M-SDE2E3FGHIRWXY/LB1 |
Departure
| Time | 2026-05-07 10:54 |
|---|---|
| Airport | Stuttgart Airport (EDDS) |
Arrival
| Time | N/A |
|---|---|
| Airport | Kraków John Paul II International Airport (EPKK) |
| Time | Latitude | Longitude | Altitude | Speed | Heading |
|---|---|---|---|---|---|
| 2026-05-07 10:11 | 48.68743 | 9.19394 | 1317 ft | 0 kts | 164° |
| 2026-05-07 10:45 | 48.68740 | 9.19396 | 1316 ft | 1 kts | 164° |
| 2026-05-07 10:46 | 48.68724 | 9.19402 | 1316 ft | 3 kts | 164° |
| 2026-05-07 10:46 | 48.68698 | 9.19423 | 1314 ft | 5 kts | 129° |
| 2026-05-07 10:46 | 48.68691 | 9.19490 | 1312 ft | 8 kts | 82° |
| 2026-05-07 10:46 | 48.68708 | 9.19583 | 1309 ft | 10 kts | 73° |
| 2026-05-07 10:47 | 48.68722 | 9.19658 | 1307 ft | 12 kts | 74° |
| 2026-05-07 10:47 | 48.68756 | 9.19840 | 1302 ft | 15 kts | 74° |
| 2026-05-07 10:47 | 48.68817 | 9.19984 | 1300 ft | 18 kts | 54° |
| 2026-05-07 10:47 | 48.68863 | 9.20163 | 1297 ft | 19 kts | 74° |
| 2026-05-07 10:48 | 48.68900 | 9.20362 | 1292 ft | 20 kts | 74° |
| 2026-05-07 10:48 | 48.68926 | 9.20500 | 1288 ft | 21 kts | 74° |
| 2026-05-07 10:48 | 48.68968 | 9.20717 | 1284 ft | 22 kts | 73° |
| 2026-05-07 10:48 | 48.69012 | 9.20946 | 1278 ft | 23 kts | 75° |
| 2026-05-07 10:49 | 48.69056 | 9.21187 | 1272 ft | 24 kts | 74° |
| 2026-05-07 10:49 | 48.69104 | 9.21439 | 1266 ft | 25 kts | 73° |
| 2026-05-07 10:49 | 48.69155 | 9.21701 | 1263 ft | 26 kts | 74° |
| 2026-05-07 10:49 | 48.69206 | 9.21974 | 1259 ft | 28 kts | 74° |
| 2026-05-07 10:50 | 48.69260 | 9.22257 | 1250 ft | 29 kts | 73° |
| 2026-05-07 10:50 | 48.69316 | 9.22551 | 1248 ft | 30 kts | 74° |
| 2026-05-07 10:50 | 48.69368 | 9.22829 | 1239 ft | 24 kts | 74° |
| 2026-05-07 10:50 | 48.69410 | 9.23049 | 1230 ft | 19 kts | 74° |
| 2026-05-07 10:51 | 48.69446 | 9.23243 | 1226 ft | 18 kts | 74° |
| 2026-05-07 10:51 | 48.69482 | 9.23432 | 1222 ft | 19 kts | 74° |
| 2026-05-07 10:51 | 48.69486 | 9.23452 | 1222 ft | 19 kts | 74° |
| 2026-05-07 10:51 | 48.69493 | 9.23493 | 1221 ft | 22 kts | 74° |
| 2026-05-07 10:52 | 48.69536 | 9.23720 | 1216 ft | 23 kts | 74° |
| 2026-05-07 10:52 | 48.69582 | 9.23959 | 1211 ft | 24 kts | 74° |
| 2026-05-07 10:52 | 48.69592 | 9.24211 | 1203 ft | 25 kts | 120° |
| 2026-05-07 10:52 | 48.69454 | 9.24338 | 1195 ft | 16 kts | 167° |
| 2026-05-07 10:53 | 48.69391 | 9.24324 | 1196 ft | 4 kts | 242° |
| 2026-05-07 10:53 | 48.69388 | 9.24309 | 1196 ft | 0 kts | 257° |
| 2026-05-07 10:53 | 48.69388 | 9.24307 | 1196 ft | 1 kts | 257° |
| 2026-05-07 10:53 | 48.69342 | 9.24059 | 1201 ft | 60 kts | 255° |
| 2026-05-07 10:54 | 48.69159 | 9.23102 | 1220 ft | 127 kts | 255° |
| 2026-05-07 10:54 | 48.68863 | 9.21517 | 1262 ft | 187 kts | 257° |
| 2026-05-07 10:54 | 48.68467 | 9.19492 | 2083 ft | 209 kts | 254° |
| 2026-05-07 10:54 | 48.68024 | 9.17336 | 3135 ft | 226 kts | 254° |
| 2026-05-07 10:55 | 48.67574 | 9.14908 | 4015 ft | 247 kts | 255° |
| 2026-05-07 10:55 | 48.67067 | 9.12341 | 5360 ft | 262 kts | 253° |
| 2026-05-07 10:55 | 48.66660 | 9.09574 | 6652 ft | 278 kts | 271° |
| 2026-05-07 10:55 | 48.67182 | 9.06695 | 7912 ft | 297 kts | 299° |
| 2026-05-07 10:56 | 48.68636 | 9.04346 | 9276 ft | 320 kts | 324° |
| 2026-05-07 10:56 | 48.70730 | 9.03022 | 10601 ft | 344 kts | 347° |
| 2026-05-07 10:56 | 48.73197 | 9.02905 | 11913 ft | 369 kts | 6° |
| 2026-05-07 10:56 | 48.75739 | 9.04049 | 13243 ft | 396 kts | 23° |
| 2026-05-07 10:57 | 48.78148 | 9.06349 | 14416 ft | 424 kts | 38° |
| 2026-05-07 10:57 | 48.80243 | 9.09659 | 15508 ft | 446 kts | 51° |
| 2026-05-07 10:57 | 48.81737 | 9.13831 | 16550 ft | 455 kts | 71° |
| 2026-05-07 10:57 | 48.82659 | 9.18441 | 17663 ft | 455 kts | 72° |
| 2026-05-07 10:58 | 48.83627 | 9.23022 | 18675 ft | 455 kts | 68° |
| 2026-05-07 10:58 | 48.85088 | 9.27191 | 19440 ft | 442 kts | 54° |
| 2026-05-07 10:58 | 48.86549 | 9.31222 | 20295 ft | 432 kts | 63° |
| 2026-05-07 10:58 | 48.87726 | 9.35342 | 21232 ft | 416 kts | 65° |
| 2026-05-07 10:59 | 48.88863 | 9.39339 | 22219 ft | 411 kts | 64° |
| 2026-05-07 10:59 | 48.90020 | 9.43276 | 23235 ft | 416 kts | 63° |
| 2026-05-07 10:59 | 48.91235 | 9.47303 | 24132 ft | 423 kts | 63° |
| 2026-05-07 10:59 | 48.92475 | 9.51393 | 24966 ft | 429 kts | 63° |
| 2026-05-07 11:00 | 48.93742 | 9.55549 | 25753 ft | 434 kts | 63° |
| 2026-05-07 11:00 | 48.95017 | 9.59740 | 26517 ft | 438 kts | 63° |
| 2026-05-07 11:00 | 48.96303 | 9.63968 | 27258 ft | 443 kts | 63° |
| 2026-05-07 11:00 | 48.97602 | 9.68252 | 27990 ft | 447 kts | 63° |
| 2026-05-07 11:01 | 48.98905 | 9.72572 | 28695 ft | 451 kts | 63° |
| 2026-05-07 11:01 | 49.00218 | 9.76924 | 29338 ft | 454 kts | 63° |
| 2026-05-07 11:01 | 49.01535 | 9.81306 | 29945 ft | 454 kts | 63° |
| 2026-05-07 11:01 | 49.02852 | 9.85676 | 30434 ft | 454 kts | 63° |
| 2026-05-07 11:02 | 49.04181 | 9.90059 | 30862 ft | 457 kts | 63° |
| 2026-05-07 11:02 | 49.05509 | 9.94483 | 31019 ft | 462 kts | 64° |
| 2026-05-07 11:02 | 49.08216 | 10.03481 | 31038 ft | 478 kts | 64° |
| 2026-05-07 11:03 | 49.11019 | 10.12910 | 31046 ft | 497 kts | 64° |